Time;durP1;ratioP1;P1;durP2;ratioP2;P2;SDS_P1;SDS_P2;PMS_P1;PMS_P2;Temp;Humidity;BMP_temperature;BMP_pressure;BME280_temperature;BME280_humidity;BME280_pressure;Samples;Min_cycle;Max_cycle;Signal;HPM_P1;HPM_P2
2022/03/27 00:00:30;;;;;;;;;;;;;;;;;;5008139;28;20360;-75
2022/03/27 00:02:56;;;;;;;;;;;;;;;;;;5000495;28;19991;-72
2022/03/27 00:05:22;;;;;;;;;;;;;;;;;;5008279;28;19917;-73
2022/03/27 00:07:48;;;;;;;;;;;;;;;;;;4995013;28;19924;-74
2022/03/27 00:10:14;;;;;;;;;;;;;;;;;;5008061;28;20430;-74
2022/03/27 00:12:40;;;;;;;;;;;;;;;;;;5009715;28;19921;-73
2022/03/27 00:15:07;;;;;;;;;;;;;;;;;;4995413;28;19928;-73
2022/03/27 00:17:34;;;;;;;;;;;;;;;;;;5012828;28;19917;-75
2022/03/27 00:20:00;;;;;;;;;;;;;;;;;;5005196;28;20189;-74
2022/03/27 00:22:26;;;;;;;;;;;;;;;;;;5012630;28;20024;-73
2022/03/27 00:24:52;;;;;;;;;;;;;;;;;;4997789;28;20384;-73
2022/03/27 00:27:18;;;;;;;;;;;;;;;;;;5012734;28;20656;-73
2022/03/27 00:29:44;;;;;;;;;;;;;;;;;;5007040;28;19917;-73
2022/03/27 00:32:10;;;;;;;;;;;;;;;;;;5008237;28;20503;-73
2022/03/27 00:34:36;;;;;;;;;;;;;;;;;;5008697;28;20252;-73
2022/03/27 00:37:02;;;;;;;;;;;;;;;;;;5005785;28;19916;-73
2022/03/27 00:39:28;;;;;;;;;;;;;;;;;;5005249;28;20097;-73
2022/03/27 00:41:55;;;;;;;;;;;;;;;;;;5003605;28;20044;-73
2022/03/27 00:44:21;;;;;;;;;;;;;;;;;;5009627;28;19920;-73
2022/03/27 00:46:47;;;;;;;;;;;;;;;;;;5004328;28;19957;-73
2022/03/27 00:49:13;;;;;;;;;;;;;;;;;;5009532;28;20361;-73
2022/03/27 00:51:39;;;;;;;;;;;;;;;;;;5009337;28;19921;-73
2022/03/27 00:54:05;;;;;;;;;;;;;;;;;;4988158;28;19928;-73
2022/03/27 00:56:31;;;;;;;;;;;;;;;;;;4994714;28;19924;-74
2022/03/27 00:58:57;;;;;;;;;;;;;;;;;;5004665;28;20287;-74
2022/03/27 01:01:24;;;;;;;;;;;;;;;;;;5010970;28;19917;-75
2022/03/27 01:03:53;;;;;;;;;;;;;;;;;;5002653;28;19924;-75
2022/03/27 01:06:19;;;;;;;;;;;;;;;;;;5004644;28;19959;-75
2022/03/27 01:11:30;;;;;;;;;;;;;;;;;;5006011;28;20409;-75
2022/03/27 01:13:56;;;;;;;;;;;;;;;;;;5005161;28;19917;-76
2022/03/27 01:16:22;;;;;;;;;;;;;;;;;;5009700;28;19916;-75
2022/03/27 01:18:48;;;;;;;;;;;;;;;;;;5004860;28;20255;-75
2022/03/27 01:21:13;;;;;;;;;;;;;;;;;;5009402;28;20604;-75
2022/03/27 01:23:39;;;;;;;;;;;;;;;;;;5005611;28;19920;-75
2022/03/27 01:26:05;;;;;;;;;;;;;;;;;;5003842;28;19917;-75
2022/03/27 01:28:31;;;;;;;;;;;;;;;;;;4999113;28;19916;-75
2022/03/27 01:30:57;;;;;;;;;;;;;;;;;;5007039;28;19925;-75
2022/03/27 01:33:23;;;;;;;;;;;;;;;;;;5008558;28;19953;-75
2022/03/27 01:35:49;;;;;;;;;;;;;;;;;;5003727;28;19917;-76
2022/03/27 01:38:15;;;;;;;;;;;;;;;;;;4993817;28;20040;-76
2022/03/27 01:40:41;;;;;;;;;;;;;;;;;;5008247;28;19925;-76
2022/03/27 01:43:07;;;;;;;;;;;;;;;;;;4994626;28;20045;-76
2022/03/27 01:45:33;;;;;;;;;;;;;;;;;;4997372;28;19917;-75
2022/03/27 01:47:59;;;;;;;;;;;;;;;;;;4979082;28;19928;-75
2022/03/27 01:50:25;;;;;;;;;;;;;;;;;;5005368;28;19917;-75
2022/03/27 01:52:51;;;;;;;;;;;;;;;;;;5016503;28;19971;-75
2022/03/27 01:55:17;;;;;;;;;;;;;;;;;;5023596;28;19921;-75
2022/03/27 01:57:43;;;;;;;;;;;;;;;;;;5022926;28;19952;-76
2022/03/27 02:00:09;;;;;;;;;;;;;;;;;;5025205;28;19916;-75
2022/03/27 02:02:35;;;;;;;;;;;;;;;;;;5019193;28;19917;-75
2022/03/27 02:05:02;;;;;;;;;;;;;;;;;;5020489;28;20294;-75
2022/03/27 02:07:28;;;;;;;;;;;;;;;;;;5004685;28;20469;-75
2022/03/27 02:09:54;;;;;;;;;;;;;;;;;;5014694;28;20067;-75
2022/03/27 02:12:20;;;;;;;;;;;;;;;;;;5007229;28;20295;-75
2022/03/27 02:14:46;;;;;;;;;;;;;;;;;;4996502;28;20204;-75
2022/03/27 02:17:12;;;;;;;;;;;;;;;;;;5026937;28;19918;-75
2022/03/27 02:19:38;;;;;;;;;;;;;;;;;;5006043;28;19917;-75
2022/03/27 02:22:04;;;;;;;;;;;;;;;;;;5024877;28;20387;-75
2022/03/27 02:24:30;;;;;;;;;;;;;;;;;;4978253;28;19920;-75
2022/03/27 02:26:56;;;;;;;;;;;;;;;;;;4978036;28;20270;-76
2022/03/27 02:29:22;;;;;;;;;;;;;;;;;;4980865;28;20355;-76
2022/03/27 02:31:48;;;;;;;;;;;;;;;;;;4960674;28;19920;-76
2022/03/27 02:34:17;;;;;;;;;;;;;;;;;;4976328;28;19917;-75
2022/03/27 02:36:43;;;;;;;;;;;;;;;;;;4980922;28;20469;-75
2022/03/27 02:39:09;;;;;;;;;;;;;;;;;;4964784;28;19932;-75
2022/03/27 02:41:35;;;;;;;;;;;;;;;;;;4977332;28;19916;-75
2022/03/27 02:44:01;;;;;;;;;;;;;;;;;;4972305;28;19921;-75
2022/03/27 02:46:27;;;;;;;;;;;;;;;;;;4977091;28;20252;-75
2022/03/27 02:48:53;;;;;;;;;;;;;;;;;;4975383;28;19924;-75
2022/03/27 02:51:19;;;;;;;;;;;;;;;;;;4976778;28;19970;-75
2022/03/27 02:53:45;;;;;;;;;;;;;;;;;;4972300;28;19917;-75
2022/03/27 02:56:11;;;;;;;;;;;;;;;;;;4972075;28;19928;-75
2022/03/27 02:58:37;;;;;;;;;;;;;;;;;;4982794;28;20366;-75
2022/03/27 03:01:03;;;;;;;;;;;;;;;;;;5003301;28;19948;-75
2022/03/27 03:03:29;;;;;;;;;;;;;;;;;;5029613;28;20258;-75
2022/03/27 03:05:57;;;;;;;;;;;;;;;;;;5011417;28;19923;-75
2022/03/27 03:08:23;;;;;;;;;;;;;;;;;;5026242;28;20336;-75
2022/03/27 03:10:49;;;;;;;;;;;;;;;;;;5021344;28;20059;-74
2022/03/27 03:13:15;;;;;;;;;;;;;;;;;;5023698;28;20380;-75
2022/03/27 03:15:41;;;;;;;;;;;;;;;;;;5005831;28;19943;-75
2022/03/27 03:18:08;;;;;;;;;;;;;;;;;;5022884;28;19916;-76
2022/03/27 03:20:34;;;;;;;;;;;;;;;;;;5027355;28;20404;-75
2022/03/27 03:23:00;;;;;;;;;;;;;;;;;;5005383;28;20434;-76
2022/03/27 03:25:26;;;;;;;;;;;;;;;;;;5016038;28;20356;-76
2022/03/27 03:27:52;;;;;;;;;;;;;;;;;;5019822;28;19971;-76
2022/03/27 03:30:18;;;;;;;;;;;;;;;;;;5031040;28;19916;-76
2022/03/27 03:32:44;;;;;;;;;;;;;;;;;;5022893;28;19916;-75
2022/03/27 03:35:10;;;;;;;;;;;;;;;;;;5028150;28;19942;-76
2022/03/27 03:37:37;;;;;;;;;;;;;;;;;;5034145;28;19921;-76
2022/03/27 03:40:02;;;;;;;;;;;;;;;;;;5015624;28;20386;-76
2022/03/27 03:42:28;;;;;;;;;;;;;;;;;;5005546;28;19917;-76
2022/03/27 03:44:54;;;;;;;;;;;;;;;;;;5007300;28;20370;-76
2022/03/27 03:47:20;;;;;;;;;;;;;;;;;;5026824;28;19917;-76
2022/03/27 03:49:46;;;;;;;;;;;;;;;;;;5025428;28;20021;-76
2022/03/27 03:52:12;;;;;;;;;;;;;;;;;;5025871;28;19923;-76
2022/03/27 03:54:38;;;;;;;;;;;;;;;;;;5025870;28;19964;-76
2022/03/27 03:57:04;;;;;;;;;;;;;;;;;;5028041;28;20569;-76
2022/03/27 03:59:33;;;;;;;;;;;;;;;;;;5029571;28;19924;-76
2022/03/27 04:01:59;;;;;;;;;;;;;;;;;;5028092;28;19924;-76
2022/03/27 04:04:25;;;;;;;;;;;;;;;;;;5020828;28;19921;-76
2022/03/27 04:06:50;;;;;;;;;;;;;;;;;;5006901;28;20539;-76
2022/03/27 04:09:17;;;;;;;;;;;;;;;;;;5023400;28;20308;-76
2022/03/27 04:11:43;;;;;;;;;;;;;;;;;;4996562;28;19925;-76
2022/03/27 04:14:09;;;;;;;;;;;;;;;;;;5002449;28;19932;-76
2022/03/27 04:16:35;;;;;;;;;;;;;;;;;;5004635;28;19917;-76
2022/03/27 04:19:01;;;;;;;;;;;;;;;;;;4994350;28;20517;-76
2022/03/27 04:21:27;;;;;;;;;;;;;;;;;;4997534;28;19989;-76
2022/03/27 04:23:53;;;;;;;;;;;;;;;;;;4999063;28;19921;-76
2022/03/27 04:26:19;;;;;;;;;;;;;;;;;;5004139;28;19917;-76
2022/03/27 04:28:45;;;;;;;;;;;;;;;;;;5001637;28;20278;-75
2022/03/27 04:31:11;;;;;;;;;;;;;;;;;;5009510;28;19919;-76
2022/03/27 04:33:37;;;;;;;;;;;;;;;;;;5007308;28;19968;-76
2022/03/27 04:36:03;;;;;;;;;;;;;;;;;;5004892;28;20003;-76
2022/03/27 04:38:29;;;;;;;;;;;;;;;;;;5007627;28;20348;-77
2022/03/27 04:40:55;;;;;;;;;;;;;;;;;;4997372;28;20364;-75
2022/03/27 04:43:22;;;;;;;;;;;;;;;;;;5006323;28;19928;-76
2022/03/27 04:45:48;;;;;;;;;;;;;;;;;;5002115;28;20246;-76
2022/03/27 04:48:14;;;;;;;;;;;;;;;;;;4996680;28;20444;-76
2022/03/27 04:50:40;;;;;;;;;;;;;;;;;;4999696;28;19924;-76
2022/03/27 04:53:06;;;;;;;;;;;;;;;;;;5000662;28;20236;-76
2022/03/27 04:55:32;;;;;;;;;;;;;;;;;;5000349;28;20331;-76
2022/03/27 04:57:58;;;;;;;;;;;;;;;;;;5004717;28;19925;-75
2022/03/27 05:00:24;;;;;;;;;;;;;;;;;;5003567;28;20011;-76
2022/03/27 05:02:50;;;;;;;;;;;;;;;;;;4993768;28;19917;-76
2022/03/27 05:05:17;;;;;;;;;;;;;;;;;;5003850;28;20395;-75
2022/03/27 05:07:43;;;;;;;;;;;;;;;;;;4993331;28;20419;-76
2022/03/27 05:10:08;;;;;;;;;;;;;;;;;;4998414;28;19996;-76
2022/03/27 05:12:34;;;;;;;;;;;;;;;;;;5000477;28;20430;-76
2022/03/27 05:15:00;;;;;;;;;;;;;;;;;;4994723;28;19918;-76
2022/03/27 05:17:26;;;;;;;;;;;;;;;;;;5005182;28;20530;-75
2022/03/27 05:19:52;;;;;;;;;;;;;;;;;;4999471;28;19923;-75
2022/03/27 05:22:18;;;;;;;;;;;;;;;;;;5003894;28;19963;-76
2022/03/27 05:24:47;;;;;;;;;;;;;;;;;;5003910;28;19921;-76
2022/03/27 05:27:14;;;;;;;;;;;;;;;;;;5000620;28;19917;-75
2022/03/27 05:29:40;;;;;;;;;;;;;;;;;;5004814;28;19916;-76
2022/03/27 05:32:06;;;;;;;;;;;;;;;;;;5002134;28;19991;-75
2022/03/27 05:34:32;;;;;;;;;;;;;;;;;;5001629;28;20437;-75
2022/03/27 05:36:58;;;;;;;;;;;;;;;;;;5002055;28;19924;-75
2022/03/27 05:39:24;;;;;;;;;;;;;;;;;;5001669;28;19921;-75
2022/03/27 05:41:50;;;;;;;;;;;;;;;;;;5003317;28;20376;-75
2022/03/27 05:44:16;;;;;;;;;;;;;;;;;;5006468;28;19928;-76
2022/03/27 05:46:42;;;;;;;;;;;;;;;;;;5000226;28;19917;-75
2022/03/27 05:49:08;;;;;;;;;;;;;;;;;;5002144;28;20281;-75
2022/03/27 05:51:34;;;;;;;;;;;;;;;;;;5001479;28;19916;-75
2022/03/27 05:54:00;;;;;;;;;;;;;;;;;;5006754;28;20485;-75
2022/03/27 05:56:26;;;;;;;;;;;;;;;;;;5011105;28;19917;-76
2022/03/27 05:58:52;;;;;;;;;;;;;;;;;;5000585;28;20272;-75
2022/03/27 06:01:18;;;;;;;;;;;;;;;;;;5008633;28;20742;-75
2022/03/27 06:03:44;;;;;;;;;;;;;;;;;;5008745;28;19968;-76
2022/03/27 06:06:10;;;;;;;;;;;;;;;;;;5008913;28;20031;-76
2022/03/27 06:08:36;;;;;;;;;;;;;;;;;;4999953;28;19917;-75
2022/03/27 06:11:02;;;;;;;;;;;;;;;;;;5008073;28;19933;-76
2022/03/27 06:13:28;;;;;;;;;;;;;;;;;;5020656;28;20522;-77
2022/03/27 06:15:54;;;;;;;;;;;;;;;;;;5023853;28;19917;-74
2022/03/27 06:18:21;;;;;;;;;;;;;;;;;;5021198;28;19917;-75
2022/03/27 06:20:47;;;;;;;;;;;;;;;;;;5008625;28;19921;-75
2022/03/27 06:23:13;;;;;;;;;;;;;;;;;;5025390;28;19962;-74
2022/03/27 06:25:39;;;;;;;;;;;;;;;;;;5005770;28;20011;-75
2022/03/27 06:28:05;;;;;;;;;;;;;;;;;;5006594;28;19921;-75
2022/03/27 06:30:31;;;;;;;;;;;;;;;;;;5026527;28;19917;-75
2022/03/27 06:32:57;;;;;;;;;;;;;;;;;;5027579;28;19921;-75
2022/03/27 06:35:23;;;;;;;;;;;;;;;;;;5010085;28;19933;-75
2022/03/27 06:37:49;;;;;;;;;;;;;;;;;;5025386;28;19970;-75
2022/03/27 06:40:15;;;;;;;;;;;;;;;;;;5021922;28;19925;-75
2022/03/27 06:42:41;;;;;;;;;;;;;;;;;;5023219;28;20340;-75
2022/03/27 06:45:07;;;;;;;;;;;;;;;;;;5025634;28;19917;-74
2022/03/27 06:47:33;;;;;;;;;;;;;;;;;;5029834;28;19923;-75
2022/03/27 06:49:59;;;;;;;;;;;;;;;;;;5026982;28;20299;-75
2022/03/27 06:52:25;;;;;;;;;;;;;;;;;;5033086;28;19917;-75
2022/03/27 06:54:51;;;;;;;;;;;;;;;;;;5022678;28;20339;-74
2022/03/27 06:57:17;;;;;;;;;;;;;;;;;;5025364;28;19957;-75
2022/03/27 07:05:13;;;;;;;;;;;;;;;;;;5024363;28;20017;-75
2022/03/27 07:07:38;;;;;;;;;;;;;;;;;;5008993;28;20007;-74
2022/03/27 07:10:04;;;;;;;;;;;;;;;;;;5022617;28;19978;-74
2022/03/27 07:12:30;;;;;;;;;;;;;;;;;;5022714;28;19925;-75
2022/03/27 07:14:57;;;;;;;;;;;;;;;;;;5024431;28;20435;-74
2022/03/27 07:17:23;;;;;;;;;;;;;;;;;;5015543;28;19916;-74
2022/03/27 07:19:49;;;;;;;;;;;;;;;;;;5003566;28;19970;-75
2022/03/27 07:22:15;;;;;;;;;;;;;;;;;;5023752;28;20019;-75
2022/03/27 07:24:41;;;;;;;;;;;;;;;;;;5025367;28;19959;-75
2022/03/27 07:27:08;;;;;;;;;;;;;;;;;;5014539;28;20474;-75
2022/03/27 07:29:34;;;;;;;;;;;;;;;;;;5022341;28;19924;-75
2022/03/27 07:32:00;;;;;;;;;;;;;;;;;;5023797;28;19917;-74
2022/03/27 07:34:26;;;;;;;;;;;;;;;;;;5008213;28;19942;-75
2022/03/27 07:36:52;;;;;;;;;;;;;;;;;;5020674;28;19971;-76
2022/03/27 07:39:18;;;;;;;;;;;;;;;;;;5034502;28;20458;-76
2022/03/27 07:41:44;;;;;;;;;;;;;;;;;;5004171;28;19921;-76
2022/03/27 07:44:10;;;;;;;;;;;;;;;;;;5012875;28;19921;-76
2022/03/27 07:46:36;;;;;;;;;;;;;;;;;;5005387;28;20441;-75
2022/03/27 07:49:02;;;;;;;;;;;;;;;;;;5018589;28;19924;-76
2022/03/27 07:51:28;;;;;;;;;;;;;;;;;;5024377;28;19927;-75
2022/03/27 07:53:54;;;;;;;;;;;;;;;;;;5022945;28;20286;-75
2022/03/27 07:56:20;;;;;;;;;;;;;;;;;;5027777;28;19917;-74
2022/03/27 07:58:46;;;;;;;;;;;;;;;;;;5023513;28;20421;-75
2022/03/27 08:01:14;;;;;;;;;;;;;;;;;;5010291;28;19928;-75
2022/03/27 08:03:40;;;;;;;;;;;;;;;;;;5008714;28;19921;-76
2022/03/27 08:06:06;;;;;;;;;;;;;;;;;;5002063;28;20643;-75
2022/03/27 08:08:32;;;;;;;;;;;;;;;;;;5002642;28;19924;-75
2022/03/27 08:10:58;;;;;;;;;;;;;;;;;;5014704;28;20243;-75
2022/03/27 08:13:24;;;;;;;;;;;;;;;;;;5030419;28;20003;-76
2022/03/27 08:15:51;;;;;;;;;;;;;;;;;;5003020;28;19971;-75
2022/03/27 08:18:17;;;;;;;;;;;;;;;;;;5030126;28;19924;-75
2022/03/27 08:20:43;;;;;;;;;;;;;;;;;;5022209;28;19917;-74
2022/03/27 08:23:09;;;;;;;;;;;;;;;;;;5021093;28;20023;-75
2022/03/27 08:28:20;;;;;;;;;;;;;;;;;;5025635;28;19998;-76
2022/03/27 08:30:46;;;;;;;;;;;;;;;;;;5022153;28;20031;-75
2022/03/27 08:33:12;;;;;;;;;;;;;;;;;;5024995;28;20047;-75
2022/03/27 08:35:42;;;;;;;;;;;;;;;;;;5019955;28;19917;-77
2022/03/27 08:38:08;;;;;;;;;;;;;;;;;;5021437;28;19970;-75
2022/03/27 08:40:33;;;;;;;;;;;;;;;;;;5025575;28;19921;-75
2022/03/27 08:42:59;;;;;;;;;;;;;;;;;;5001982;28;19917;-75
2022/03/27 08:45:25;;;;;;;;;;;;;;;;;;5021130;28;20401;-75
2022/03/27 08:47:51;;;;;;;;;;;;;;;;;;5018964;28;19924;-75
2022/03/27 08:50:17;;;;;;;;;;;;;;;;;;5003012;28;19925;-75
2022/03/27 08:52:43;;;;;;;;;;;;;;;;;;5022314;28;19924;-76
2022/03/27 08:55:09;;;;;;;;;;;;;;;;;;5022908;28;19916;-75
2022/03/27 08:57:35;;;;;;;;;;;;;;;;;;5012824;28;20453;-76
2022/03/27 09:00:02;;;;;;;;;;;;;;;;;;5019651;28;19917;-74
2022/03/27 09:02:28;;;;;;;;;;;;;;;;;;5026640;28;19922;-75
2022/03/27 09:04:54;;;;;;;;;;;;;;;;;;5024212;28;19951;-76
2022/03/27 09:07:20;;;;;;;;;;;;;;;;;;5019959;28;19917;-77
2022/03/27 09:09:46;;;;;;;;;;;;;;;;;;5023682;28;19924;-75
2022/03/27 09:12:11;;;;;;;;;;;;;;;;;;5028989;28;19931;-77
2022/03/27 09:14:38;;;;;;;;;;;;;;;;;;5028324;28;19971;-77
2022/03/27 09:17:04;;;;;;;;;;;;;;;;;;5018502;28;19926;-77
2022/03/27 09:19:32;;;;;;;;;;;;;;;;;;5021747;28;20161;-75
2022/03/27 09:21:59;;;;;;;;;;;;;;;;;;5022389;28;20351;-75
2022/03/27 09:24:25;;;;;;;;;;;;;;;;;;5014880;28;19920;-74
2022/03/27 09:26:51;;;;;;;;;;;;;;;;;;5013448;28;20363;-76
2022/03/27 09:29:18;;;;;;;;;;;;;;;;;;5028057;28;19928;-75
2022/03/27 09:31:45;;;;;;;;;;;;;;;;;;5027703;28;19917;-76
2022/03/27 09:34:12;;;;;;;;;;;;;;;;;;5025795;28;19975;-76
2022/03/27 09:36:40;;;;;;;;;;;;;;;;;;5024613;28;19921;-76
2022/03/27 09:39:07;;;;;;;;;;;;;;;;;;5007632;28;19920;-76
2022/03/27 09:41:33;;;;;;;;;;;;;;;;;;5009681;28;20287;-76
2022/03/27 09:44:00;;;;;;;;;;;;;;;;;;5027330;28;20107;-75
2022/03/27 09:46:26;;;;;;;;;;;;;;;;;;5026446;28;20066;-75
2022/03/27 09:48:52;;;;;;;;;;;;;;;;;;5029705;28;20306;-74
2022/03/27 09:51:18;;;;;;;;;;;;;;;;;;5014572;28;20646;-74
2022/03/27 09:53:44;;;;;;;;;;;;;;;;;;5014357;28;19924;-75
2022/03/27 09:56:10;;;;;;;;;;;;;;;;;;5020650;28;19917;-75
2022/03/27 09:58:37;;;;;;;;;;;;;;;;;;5004854;28;19959;-75
2022/03/27 10:01:02;;;;;;;;;;;;;;;;;;5025752;28;19960;-74
2022/03/27 10:03:28;;;;;;;;;;;;;;;;;;5026408;28;20015;-74
2022/03/27 10:05:54;;;;;;;;;;;;;;;;;;5022225;28;20649;-74
2022/03/27 10:08:20;;;;;;;;;;;;;;;;;;5008650;28;19956;-75
2022/03/27 10:10:46;;;;;;;;;;;;;;;;;;5005315;28;19920;-74
2022/03/27 10:13:12;;;;;;;;;;;;;;;;;;5017355;28;19924;-75
2022/03/27 10:15:38;;;;;;;;;;;;;;;;;;5023997;28;19917;-75
2022/03/27 10:18:05;;;;;;;;;;;;;;;;;;5015332;28;20276;-75
2022/03/27 10:20:32;;;;;;;;;;;;;;;;;;5012006;28;20139;-75
2022/03/27 10:22:59;;;;;;;;;;;;;;;;;;5008467;28;20281;-75
2022/03/27 10:25:25;;;;;;;;;;;;;;;;;;5011393;28;19924;-74
2022/03/27 10:27:51;;;;;;;;;;;;;;;;;;5008703;28;20749;-75
2022/03/27 10:30:17;;;;;;;;;;;;;;;;;;5019469;28;19921;-75
2022/03/27 10:32:43;;;;;;;;;;;;;;;;;;5012841;28;19940;-75
2022/03/27 10:35:09;;;;;;;;;;;;;;;;;;5012634;28;19920;-76
2022/03/27 10:37:35;;;;;;;;;;;;;;;;;;5018949;28;20388;-76
2022/03/27 10:40:01;;;;;;;;;;;;;;;;;;5005189;28;19928;-76
2022/03/27 10:42:27;;;;;;;;;;;;;;;;;;5013815;28;19921;-75
2022/03/27 10:44:53;;;;;;;;;;;;;;;;;;5008945;28;19920;-75
2022/03/27 10:47:19;;;;;;;;;;;;;;;;;;5008580;28;19998;-76
2022/03/27 10:49:45;;;;;;;;;;;;;;;;;;5013321;28;19917;-75
2022/03/27 10:52:11;;;;;;;;;;;;;;;;;;5011985;28;19921;-76
2022/03/27 10:54:37;;;;;;;;;;;;;;;;;;5017295;28;20411;-75
2022/03/27 10:57:04;;;;;;;;;;;;;;;;;;5009038;28;19924;-75
2022/03/27 10:59:30;;;;;;;;;;;;;;;;;;5010086;28;19924;-75
2022/03/27 11:01:56;;;;;;;;;;;;;;;;;;5011133;28;19921;-76
2022/03/27 11:04:23;;;;;;;;;;;;;;;;;;5012827;28;19995;-76
2022/03/27 11:06:49;;;;;;;;;;;;;;;;;;5011685;28;19917;-77
2022/03/27 11:09:15;;;;;;;;;;;;;;;;;;5002375;28;19921;-76
2022/03/27 11:11:41;;;;;;;;;;;;;;;;;;5015759;28;19978;-75
2022/03/27 11:14:07;;;;;;;;;;;;;;;;;;5008387;28;19920;-75
2022/03/27 11:16:37;;;;;;;;;;;;;;;;;;5013385;28;19921;-75
2022/03/27 11:19:03;;;;;;;;;;;;;;;;;;5009634;28;19917;-75
2022/03/27 11:21:29;;;;;;;;;;;;;;;;;;5005912;28;19917;-75
2022/03/27 11:23:55;;;;;;;;;;;;;;;;;;5007342;28;20797;-75
2022/03/27 11:26:21;;;;;;;;;;;;;;;;;;5014673;28;19917;-75
2022/03/27 11:28:47;;;;;;;;;;;;;;;;;;5007481;28;20461;-75
2022/03/27 11:31:13;;;;;;;;;;;;;;;;;;5011363;28;19960;-75
2022/03/27 11:33:39;;;;;;;;;;;;;;;;;;4997450;28;20012;-76
2022/03/27 11:36:07;;;;;;;;;;;;;;;;;;5009252;28;19921;-75
2022/03/27 11:38:33;;;;;;;;;;;;;;;;;;5011338;28;20327;-74
2022/03/27 11:40:59;;;;;;;;;;;;;;;;;;5008317;28;19952;-75
2022/03/27 11:43:25;;;;;;;;;;;;;;;;;;5012641;28;20392;-76
2022/03/27 11:45:51;;;;;;;;;;;;;;;;;;5008751;28;19929;-76
2022/03/27 11:48:17;;;;;;;;;;;;;;;;;;4996727;28;20146;-76
2022/03/27 11:50:44;;;;;;;;;;;;;;;;;;4997437;28;20325;-76
2022/03/27 11:53:10;;;;;;;;;;;;;;;;;;5009361;28;19917;-76
2022/03/27 11:55:37;;;;;;;;;;;;;;;;;;5000647;28;19923;-75
2022/03/27 11:58:03;;;;;;;;;;;;;;;;;;5006527;28;19917;-76
2022/03/27 12:00:30;;;;;;;;;;;;;;;;;;5014356;28;20020;-76
2022/03/27 12:02:56;;;;;;;;;;;;;;;;;;5005893;28;19948;-76
2022/03/27 12:05:22;;;;;;;;;;;;;;;;;;5006969;28;19985;-76
2022/03/27 12:07:48;;;;;;;;;;;;;;;;;;5005035;28;19932;-76
2022/03/27 12:10:14;;;;;;;;;;;;;;;;;;5012159;28;20276;-77
2022/03/27 12:12:40;;;;;;;;;;;;;;;;;;5003115;28;19925;-76
2022/03/27 12:15:08;;;;;;;;;;;;;;;;;;4988648;28;20290;-75
2022/03/27 12:17:36;;;;;;;;;;;;;;;;;;4991501;28;19917;-75
2022/03/27 12:20:02;;;;;;;;;;;;;;;;;;4985902;28;19917;-75
2022/03/27 12:22:28;;;;;;;;;;;;;;;;;;4999299;28;20423;-75
2022/03/27 12:24:54;;;;;;;;;;;;;;;;;;4988226;28;19928;-75
2022/03/27 12:30:04;;;;;;;;;;;;;;;;;;4987906;28;19923;-75
2022/03/27 12:32:30;;;;;;;;;;;;;;;;;;4994211;28;19917;-76
2022/03/27 12:35:01;;;;;;;;;;;;;;;;;;4988473;28;20438;-75
2022/03/27 12:37:27;;;;;;;;;;;;;;;;;;4996676;28;19940;-76
2022/03/27 12:39:53;;;;;;;;;;;;;;;;;;4990368;28;20008;-76
2022/03/27 12:42:19;;;;;;;;;;;;;;;;;;4988865;28;20384;-76
2022/03/27 12:44:45;;;;;;;;;;;;;;;;;;4988674;28;19976;-76
2022/03/27 12:47:11;;;;;;;;;;;;;;;;;;4993727;28;20652;-76
2022/03/27 12:49:37;;;;;;;;;;;;;;;;;;4991913;28;19917;-76
2022/03/27 12:52:03;;;;;;;;;;;;;;;;;;4992222;28;20291;-76
2022/03/27 12:54:29;;;;;;;;;;;;;;;;;;4992973;28;20368;-76
2022/03/27 12:56:55;;;;;;;;;;;;;;;;;;4985699;28;19917;-77
2022/03/27 12:59:21;;;;;;;;;;;;;;;;;;4992380;28;20007;-76
2022/03/27 13:01:47;;;;;;;;;;;;;;;;;;4990909;28;20008;-77
2022/03/27 13:04:13;;;;;;;;;;;;;;;;;;4985409;28;20383;-76
2022/03/27 13:06:40;;;;;;;;;;;;;;;;;;5004739;28;19979;-77
2022/03/27 13:09:08;;;;;;;;;;;;;;;;;;5002547;28;20361;-76
2022/03/27 13:11:34;;;;;;;;;;;;;;;;;;4999980;28;19991;-76
2022/03/27 13:14:00;;;;;;;;;;;;;;;;;;5011447;28;19916;-76
2022/03/27 13:16:29;;;;;;;;;;;;;;;;;;5010503;28;20241;-76
2022/03/27 13:18:56;;;;;;;;;;;;;;;;;;5009415;28;19921;-76
2022/03/27 13:21:22;;;;;;;;;;;;;;;;;;5012609;28;19995;-76
2022/03/27 13:23:48;;;;;;;;;;;;;;;;;;4994988;28;19931;-75
2022/03/27 13:26:14;;;;;;;;;;;;;;;;;;4998254;28;19917;-76
2022/03/27 13:28:40;;;;;;;;;;;;;;;;;;5008778;28;20395;-76
2022/03/27 13:31:06;;;;;;;;;;;;;;;;;;5009089;28;19934;-77
2022/03/27 13:33:32;;;;;;;;;;;;;;;;;;5011484;28;20631;-77
2022/03/27 13:35:58;;;;;;;;;;;;;;;;;;5006555;28;19921;-77
2022/03/27 13:38:24;;;;;;;;;;;;;;;;;;5009416;28;19971;-77
2022/03/27 13:43:35;;;;;;;;;;;;;;;;;;5016748;28;19928;-76
2022/03/27 13:46:01;;;;;;;;;;;;;;;;;;5012800;28;19999;-76
2022/03/27 13:48:27;;;;;;;;;;;;;;;;;;5003623;28;19960;-77
2022/03/27 13:50:53;;;;;;;;;;;;;;;;;;4998363;28;20710;-77
2022/03/27 13:53:19;;;;;;;;;;;;;;;;;;4996451;28;19917;-76
2022/03/27 13:55:45;;;;;;;;;;;;;;;;;;5010789;28;19924;-75
2022/03/27 13:58:11;;;;;;;;;;;;;;;;;;5013440;28;20260;-76
2022/03/27 14:00:37;;;;;;;;;;;;;;;;;;5013195;28;19917;-76
2022/03/27 14:03:03;;;;;;;;;;;;;;;;;;5021549;28;19921;-76
2022/03/27 14:05:29;;;;;;;;;;;;;;;;;;5018217;28;20634;-76
2022/03/27 14:07:55;;;;;;;;;;;;;;;;;;5004129;28;19917;-76
2022/03/27 14:10:23;;;;;;;;;;;;;;;;;;4994680;28;20382;-76
2022/03/27 14:12:49;;;;;;;;;;;;;;;;;;4996263;28;20006;-76
2022/03/27 14:15:15;;;;;;;;;;;;;;;;;;5019543;28;19928;-76
2022/03/27 14:17:41;;;;;;;;;;;;;;;;;;5017598;28;19921;-77
2022/03/27 14:20:07;;;;;;;;;;;;;;;;;;5014986;28;19917;-75
2022/03/27 14:22:34;;;;;;;;;;;;;;;;;;5016635;28;19928;-75
2022/03/27 14:25:00;;;;;;;;;;;;;;;;;;5020940;28;19946;-76
2022/03/27 14:27:26;;;;;;;;;;;;;;;;;;5017906;28;20402;-75
2022/03/27 14:29:52;;;;;;;;;;;;;;;;;;5013027;28;20023;-77
2022/03/27 14:32:18;;;;;;;;;;;;;;;;;;5003817;28;19928;-77
2022/03/27 14:34:44;;;;;;;;;;;;;;;;;;5015365;28;20418;-78
2022/03/27 14:37:10;;;;;;;;;;;;;;;;;;4997557;28;19925;-75
2022/03/27 14:39:36;;;;;;;;;;;;;;;;;;5012752;28;19928;-77
2022/03/27 14:42:03;;;;;;;;;;;;;;;;;;5006115;28;19917;-77
2022/03/27 14:44:29;;;;;;;;;;;;;;;;;;5013313;28;19927;-77
2022/03/27 14:46:55;;;;;;;;;;;;;;;;;;5007295;28;19917;-77
2022/03/27 14:49:21;;;;;;;;;;;;;;;;;;5013060;28;20301;-77
2022/03/27 14:51:47;;;;;;;;;;;;;;;;;;5011480;28;19924;-76
2022/03/27 14:56:58;;;;;;;;;;;;;;;;;;5012889;28;20217;-77
2022/03/27 14:59:24;;;;;;;;;;;;;;;;;;5009633;28;20015;-77
2022/03/27 15:01:50;;;;;;;;;;;;;;;;;;5008601;28;19917;-77
2022/03/27 15:04:16;;;;;;;;;;;;;;;;;;5007953;28;19928;-77
2022/03/27 15:06:42;;;;;;;;;;;;;;;;;;4999509;28;19917;-77
2022/03/27 15:09:08;;;;;;;;;;;;;;;;;;5014573;28;19945;-77
2022/03/27 15:11:34;;;;;;;;;;;;;;;;;;5001347;28;19925;-76
2022/03/27 15:14:02;;;;;;;;;;;;;;;;;;5004324;28;19924;-77
2022/03/27 15:16:29;;;;;;;;;;;;;;;;;;5011890;28;20023;-75
2022/03/27 15:18:55;;;;;;;;;;;;;;;;;;4995864;28;19921;-76
2022/03/27 15:21:21;;;;;;;;;;;;;;;;;;5012961;28;19924;-76
2022/03/27 15:23:47;;;;;;;;;;;;;;;;;;5007498;28;20560;-74
2022/03/27 15:26:13;;;;;;;;;;;;;;;;;;5011897;28;20743;-75
2022/03/27 15:28:39;;;;;;;;;;;;;;;;;;5015059;28;20381;-75
2022/03/27 15:31:08;;;;;;;;;;;;;;;;;;5006600;28;22765;-77
2022/03/27 15:33:34;;;;;;;;;;;;;;;;;;5009075;28;19925;-75
2022/03/27 15:36:00;;;;;;;;;;;;;;;;;;5013729;28;19921;-75
2022/03/27 15:38:26;;;;;;;;;;;;;;;;;;5016503;28;20026;-74
2022/03/27 15:40:52;;;;;;;;;;;;;;;;;;5007238;28;19928;-74
2022/03/27 15:43:18;;;;;;;;;;;;;;;;;;4995856;28;19921;-74
2022/03/27 15:45:44;;;;;;;;;;;;;;;;;;5006770;28;19917;-72
2022/03/27 15:48:10;;;;;;;;;;;;;;;;;;5005314;28;20046;-73
2022/03/27 15:50:36;;;;;;;;;;;;;;;;;;5012308;28;19944;-73
2022/03/27 15:53:02;;;;;;;;;;;;;;;;;;5011147;28;20343;-73
2022/03/27 15:55:28;;;;;;;;;;;;;;;;;;5011773;28;20011;-73
2022/03/27 15:57:54;;;;;;;;;;;;;;;;;;5010324;28;19920;-73
2022/03/27 16:00:20;;;;;;;;;;;;;;;;;;5015389;28;19963;-74
2022/03/27 16:02:46;;;;;;;;;;;;;;;;;;5010127;28;20011;-73
2022/03/27 16:05:12;;;;;;;;;;;;;;;;;;5010747;28;19920;-73
2022/03/27 16:07:38;;;;;;;;;;;;;;;;;;5011355;28;19921;-73
2022/03/27 16:10:04;;;;;;;;;;;;;;;;;;5009956;28;19921;-73
2022/03/27 16:12:30;;;;;;;;;;;;;;;;;;5017830;28;19936;-72
2022/03/27 16:14:56;;;;;;;;;;;;;;;;;;4999175;28;20398;-73
2022/03/27 16:17:23;;;;;;;;;;;;;;;;;;5000875;28;19917;-73
2022/03/27 16:19:49;;;;;;;;;;;;;;;;;;5019229;28;20035;-73
2022/03/27 16:22:15;;;;;;;;;;;;;;;;;;5021501;28;19917;-73
2022/03/27 16:24:41;;;;;;;;;;;;;;;;;;5014045;28;20312;-73
2022/03/27 16:27:07;;;;;;;;;;;;;;;;;;5017609;28;20443;-72
2022/03/27 16:29:33;;;;;;;;;;;;;;;;;;5019549;28;20193;-72
2022/03/27 16:31:59;;;;;;;;;;;;;;;;;;5016357;28;20314;-72
2022/03/27 16:34:29;;;;;;;;;;;;;;;;;;5022468;28;19917;-72
2022/03/27 16:36:55;;;;;;;;;;;;;;;;;;5016666;28;20440;-72
2022/03/27 16:39:21;;;;;;;;;;;;;;;;;;5023002;28;20227;-72
2022/03/27 16:41:47;;;;;;;;;;;;;;;;;;5014889;28;19998;-72
2022/03/27 16:44:13;;;;;;;;;;;;;;;;;;4996020;28;20674;-72
2022/03/27 16:46:39;;;;;;;;;;;;;;;;;;5015058;28;20161;-72
2022/03/27 16:49:05;;;;;;;;;;;;;;;;;;5013282;28;24818;-72
2022/03/27 16:51:31;;;;;;;;;;;;;;;;;;5017346;28;20500;-72
2022/03/27 16:53:57;;;;;;;;;;;;;;;;;;5015168;28;19917;-73
2022/03/27 16:56:23;;;;;;;;;;;;;;;;;;5016827;28;19995;-72